Chickama, Louisiana
Current Conditions -  °F | °C
As of 10:53 PM on Saturday 20 Dec 2014 (Local Time) from KAEX Reporting Station
Haze Haze  
Wind Chill: 41°   Ceiling: Unl
Heat Index: 41°   Visibility: 4mi
Dew Point: 40°   Wind: 3mph
Humidity: 96%   Direction: 310°NW
Pressure: 30.18"   Gusts: NA
Location:  31.1282°N, 92.3823°W
Report Text: KAEX 210453Z 31003KT 4SM BR CLR 05/04 A3018 RMK AO2 SLP226 T00500044
Loading
Personal Weather Stations






























Interactive Weather Map New forecast layout! Learn more

10-Day Weather Forecast

Advertisements
Track Severe Weather on mobile